sensor_id;sensor_type;location;lat;lon;timestamp;P1;durP1;ratioP1;P2;durP2;ratioP2
27303;SDS011;14791;52.392;13.092;2023-03-04T00:01:43;11.97;;;10.80;;
27303;SDS011;14791;52.392;13.092;2023-03-04T00:04:11;13.20;;;11.60;;
27303;SDS011;14791;52.392;13.092;2023-03-04T00:06:40;11.70;;;10.57;;
27303;SDS011;14791;52.392;13.092;2023-03-04T00:09:09;12.73;;;10.20;;
27303;SDS011;14791;52.392;13.092;2023-03-04T00:11:38;11.33;;;10.23;;
27303;SDS011;14791;52.392;13.092;2023-03-04T00:14:07;14.47;;;11.43;;
27303;SDS011;14791;52.392;13.092;2023-03-04T00:16:36;12.97;;;11.43;;
27303;SDS011;14791;52.392;13.092;2023-03-04T00:19:05;11.90;;;10.60;;
27303;SDS011;14791;52.392;13.092;2023-03-04T00:21:34;14.07;;;11.67;;
27303;SDS011;14791;52.392;13.092;2023-03-04T00:24:03;15.80;;;12.10;;
27303;SDS011;14791;52.392;13.092;2023-03-04T00:26:32;12.20;;;10.97;;
27303;SDS011;14791;52.392;13.092;2023-03-04T00:29:01;13.17;;;10.93;;
27303;SDS011;14791;52.392;13.092;2023-03-04T00:31:30;13.23;;;11.77;;
27303;SDS011;14791;52.392;13.092;2023-03-04T00:33:59;12.17;;;10.87;;
27303;SDS011;14791;52.392;13.092;2023-03-04T00:36:28;12.33;;;10.93;;
27303;SDS011;14791;52.392;13.092;2023-03-04T00:38:58;13.53;;;11.33;;
27303;SDS011;14791;52.392;13.092;2023-03-04T00:41:26;13.20;;;10.73;;
27303;SDS011;14791;52.392;13.092;2023-03-04T00:43:55;13.60;;;11.23;;
27303;SDS011;14791;52.392;13.092;2023-03-04T00:46:24;12.37;;;10.27;;
27303;SDS011;14791;52.392;13.092;2023-03-04T00:48:53;15.17;;;10.93;;
27303;SDS011;14791;52.392;13.092;2023-03-04T00:51:22;15.80;;;11.63;;
27303;SDS011;14791;52.392;13.092;2023-03-04T00:53:51;12.60;;;10.53;;
27303;SDS011;14791;52.392;13.092;2023-03-04T00:56:21;12.87;;;9.70;;
27303;SDS011;14791;52.392;13.092;2023-03-04T00:58:49;13.23;;;10.27;;
27303;SDS011;14791;52.392;13.092;2023-03-04T01:01:18;12.87;;;10.03;;
27303;SDS011;14791;52.392;13.092;2023-03-04T01:03:47;12.33;;;10.67;;
27303;SDS011;14791;52.392;13.092;2023-03-04T01:06:16;12.07;;;10.17;;
27303;SDS011;14791;52.392;13.092;2023-03-04T01:08:47;10.57;;;9.43;;
27303;SDS011;14791;52.392;13.092;2023-03-04T01:11:16;13.20;;;9.50;;
27303;SDS011;14791;52.392;13.092;2023-03-04T01:13:46;10.77;;;8.97;;
27303;SDS011;14791;52.392;13.092;2023-03-04T01:16:15;11.13;;;9.43;;
27303;SDS011;14791;52.392;13.092;2023-03-04T01:18:44;13.47;;;8.93;;
27303;SDS011;14791;52.392;13.092;2023-03-04T01:21:13;9.77;;;8.77;;
27303;SDS011;14791;52.392;13.092;2023-03-04T01:23:42;10.33;;;8.97;;
27303;SDS011;14791;52.392;13.092;2023-03-04T01:26:11;12.67;;;9.47;;
27303;SDS011;14791;52.392;13.092;2023-03-04T01:28:40;11.97;;;8.50;;
27303;SDS011;14791;52.392;13.092;2023-03-04T01:31:09;8.67;;;7.53;;
27303;SDS011;14791;52.392;13.092;2023-03-04T01:33:38;12.47;;;8.03;;
27303;SDS011;14791;52.392;13.092;2023-03-04T01:36:07;9.20;;;8.10;;
27303;SDS011;14791;52.392;13.092;2023-03-04T01:38:36;12.70;;;7.60;;
27303;SDS011;14791;52.392;13.092;2023-03-04T01:41:04;8.57;;;7.57;;
27303;SDS011;14791;52.392;13.092;2023-03-04T01:43:35;8.70;;;7.50;;
27303;SDS011;14791;52.392;13.092;2023-03-04T01:46:05;8.00;;;6.93;;
27303;SDS011;14791;52.392;13.092;2023-03-04T01:48:36;9.17;;;6.37;;
27303;SDS011;14791;52.392;13.092;2023-03-04T01:51:08;10.60;;;7.00;;
27303;SDS011;14791;52.392;13.092;2023-03-04T01:53:37;7.43;;;6.07;;
27303;SDS011;14791;52.392;13.092;2023-03-04T01:59:17;8.93;;;6.10;;
27303;SDS011;14791;52.392;13.092;2023-03-04T02:01:49;9.97;;;5.60;;
27303;SDS011;14791;52.392;13.092;2023-03-04T02:04:24;6.60;;;5.93;;
27303;SDS011;14791;52.392;13.092;2023-03-04T02:06:55;8.13;;;5.67;;
27303;SDS011;14791;52.392;13.092;2023-03-04T02:09:27;7.93;;;5.23;;
27303;SDS011;14791;52.392;13.092;2023-03-04T02:11:57;8.27;;;5.13;;
27303;SDS011;14791;52.392;13.092;2023-03-04T02:14:26;6.77;;;5.17;;
27303;SDS011;14791;52.392;13.092;2023-03-04T02:16:55;8.33;;;5.57;;
27303;SDS011;14791;52.392;13.092;2023-03-04T02:19:41;8.90;;;5.23;;
27303;SDS011;14791;52.392;13.092;2023-03-04T02:22:14;6.57;;;4.73;;
27303;SDS011;14791;52.392;13.092;2023-03-04T02:24:47;8.07;;;4.70;;
27303;SDS011;14791;52.392;13.092;2023-03-04T02:27:21;7.93;;;5.27;;
27303;SDS011;14791;52.392;13.092;2023-03-04T02:29:51;11.27;;;5.80;;
27303;SDS011;14791;52.392;13.092;2023-03-04T02:32:20;6.10;;;4.50;;
27303;SDS011;14791;52.392;13.092;2023-03-04T02:34:49;6.23;;;4.23;;
27303;SDS011;14791;52.392;13.092;2023-03-04T02:37:20;6.90;;;4.53;;
27303;SDS011;14791;52.392;13.092;2023-03-04T02:39:51;6.97;;;4.47;;
27303;SDS011;14791;52.392;13.092;2023-03-04T02:42:20;7.93;;;4.90;;
27303;SDS011;14791;52.392;13.092;2023-03-04T02:44:58;5.70;;;4.70;;
27303;SDS011;14791;52.392;13.092;2023-03-04T02:47:22;6.00;;;4.33;;
27303;SDS011;14791;52.392;13.092;2023-03-04T02:49:51;8.13;;;4.67;;
27303;SDS011;14791;52.392;13.092;2023-03-04T02:52:23;6.47;;;4.03;;
27303;SDS011;14791;52.392;13.092;2023-03-04T02:54:53;6.67;;;4.50;;
27303;SDS011;14791;52.392;13.092;2023-03-04T02:57:22;4.67;;;4.20;;
27303;SDS011;14791;52.392;13.092;2023-03-04T02:59:53;6.80;;;4.57;;
27303;SDS011;14791;52.392;13.092;2023-03-04T03:02:23;8.17;;;4.10;;
27303;SDS011;14791;52.392;13.092;2023-03-04T03:04:53;6.43;;;3.33;;
27303;SDS011;14791;52.392;13.092;2023-03-04T03:07:24;4.43;;;3.90;;
27303;SDS011;14791;52.392;13.092;2023-03-04T03:09:53;7.17;;;3.97;;
27303;SDS011;14791;52.392;13.092;2023-03-04T03:12:22;6.93;;;3.50;;
27303;SDS011;14791;52.392;13.092;2023-03-04T03:14:51;6.50;;;3.57;;
27303;SDS011;14791;52.392;13.092;2023-03-04T03:17:21;8.70;;;3.53;;
27303;SDS011;14791;52.392;13.092;2023-03-04T03:19:50;5.67;;;3.70;;
27303;SDS011;14791;52.392;13.092;2023-03-04T03:22:19;9.17;;;3.83;;
27303;SDS011;14791;52.392;13.092;2023-03-04T03:24:47;4.13;;;3.30;;
27303;SDS011;14791;52.392;13.092;2023-03-04T03:27:16;6.47;;;3.30;;
27303;SDS011;14791;52.392;13.092;2023-03-04T03:29:45;5.50;;;3.27;;
27303;SDS011;14791;52.392;13.092;2023-03-04T03:32:14;3.47;;;3.17;;
27303;SDS011;14791;52.392;13.092;2023-03-04T03:34:43;6.87;;;3.90;;
27303;SDS011;14791;52.392;13.092;2023-03-04T03:37:12;6.87;;;3.33;;
27303;SDS011;14791;52.392;13.092;2023-03-04T03:39:41;6.43;;;3.10;;
27303;SDS011;14791;52.392;13.092;2023-03-04T03:42:10;7.50;;;3.37;;
27303;SDS011;14791;52.392;13.092;2023-03-04T03:44:39;4.80;;;3.17;;
27303;SDS011;14791;52.392;13.092;2023-03-04T03:47:08;6.30;;;3.03;;
27303;SDS011;14791;52.392;13.092;2023-03-04T03:49:37;7.40;;;3.33;;
27303;SDS011;14791;52.392;13.092;2023-03-04T03:52:06;8.17;;;3.43;;
27303;SDS011;14791;52.392;13.092;2023-03-04T03:54:35;4.03;;;2.83;;
27303;SDS011;14791;52.392;13.092;2023-03-04T03:57:04;4.80;;;3.20;;
27303;SDS011;14791;52.392;13.092;2023-03-04T03:59:33;5.93;;;3.07;;
27303;SDS011;14791;52.392;13.092;2023-03-04T04:02:02;3.23;;;2.70;;
27303;SDS011;14791;52.392;13.092;2023-03-04T04:04:31;3.60;;;2.93;;
27303;SDS011;14791;52.392;13.092;2023-03-04T04:07:00;7.53;;;2.70;;
27303;SDS011;14791;52.392;13.092;2023-03-04T04:09:29;6.60;;;3.27;;
27303;SDS011;14791;52.392;13.092;2023-03-04T04:11:57;4.07;;;2.37;;
27303;SDS011;14791;52.392;13.092;2023-03-04T04:14:26;3.50;;;2.13;;
27303;SDS011;14791;52.392;13.092;2023-03-04T04:16:55;2.83;;;2.13;;
27303;SDS011;14791;52.392;13.092;2023-03-04T04:19:24;3.37;;;2.27;;
27303;SDS011;14791;52.392;13.092;2023-03-04T04:21:53;3.83;;;2.27;;
27303;SDS011;14791;52.392;13.092;2023-03-04T04:24:22;4.30;;;2.87;;
27303;SDS011;14791;52.392;13.092;2023-03-04T04:26:51;3.93;;;2.40;;
27303;SDS011;14791;52.392;13.092;2023-03-04T04:29:20;5.50;;;2.50;;
27303;SDS011;14791;52.392;13.092;2023-03-04T04:31:49;5.40;;;2.57;;
27303;SDS011;14791;52.392;13.092;2023-03-04T04:34:18;9.33;;;2.90;;
27303;SDS011;14791;52.392;13.092;2023-03-04T04:36:47;4.73;;;2.33;;
27303;SDS011;14791;52.392;13.092;2023-03-04T04:39:16;4.07;;;2.73;;
27303;SDS011;14791;52.392;13.092;2023-03-04T04:41:45;4.77;;;2.57;;
27303;SDS011;14791;52.392;13.092;2023-03-04T04:44:15;3.60;;;2.60;;
27303;SDS011;14791;52.392;13.092;2023-03-04T04:46:44;7.03;;;2.53;;
27303;SDS011;14791;52.392;13.092;2023-03-04T04:49:13;3.30;;;2.17;;
27303;SDS011;14791;52.392;13.092;2023-03-04T04:51:41;3.93;;;2.10;;
27303;SDS011;14791;52.392;13.092;2023-03-04T04:54:11;4.27;;;2.33;;
27303;SDS011;14791;52.392;13.092;2023-03-04T04:56:41;4.30;;;2.47;;
27303;SDS011;14791;52.392;13.092;2023-03-04T04:59:10;3.27;;;2.07;;
27303;SDS011;14791;52.392;13.092;2023-03-04T05:01:39;5.87;;;2.23;;
27303;SDS011;14791;52.392;13.092;2023-03-04T05:04:08;2.63;;;2.23;;
27303;SDS011;14791;52.392;13.092;2023-03-04T05:06:37;3.77;;;2.23;;
27303;SDS011;14791;52.392;13.092;2023-03-04T05:09:06;3.23;;;2.00;;
27303;SDS011;14791;52.392;13.092;2023-03-04T05:11:35;2.90;;;1.90;;
27303;SDS011;14791;52.392;13.092;2023-03-04T05:14:04;5.50;;;2.37;;
27303;SDS011;14791;52.392;13.092;2023-03-04T05:16:33;2.00;;;1.90;;
27303;SDS011;14791;52.392;13.092;2023-03-04T05:19:02;7.70;;;2.47;;
27303;SDS011;14791;52.392;13.092;2023-03-04T05:21:31;3.43;;;2.10;;
27303;SDS011;14791;52.392;13.092;2023-03-04T05:24:00;6.17;;;2.40;;
27303;SDS011;14791;52.392;13.092;2023-03-04T05:26:28;6.50;;;2.63;;
27303;SDS011;14791;52.392;13.092;2023-03-04T05:28:57;3.63;;;2.13;;
27303;SDS011;14791;52.392;13.092;2023-03-04T05:31:26;2.27;;;2.00;;
27303;SDS011;14791;52.392;13.092;2023-03-04T05:33:55;5.83;;;2.63;;
27303;SDS011;14791;52.392;13.092;2023-03-04T05:36:24;2.10;;;1.80;;
27303;SDS011;14791;52.392;13.092;2023-03-04T05:38:55;2.37;;;2.17;;
27303;SDS011;14791;52.392;13.092;2023-03-04T05:41:24;2.90;;;2.20;;
27303;SDS011;14791;52.392;13.092;2023-03-04T05:43:53;2.47;;;2.27;;
27303;SDS011;14791;52.392;13.092;2023-03-04T05:46:22;2.37;;;2.03;;
27303;SDS011;14791;52.392;13.092;2023-03-04T05:48:52;4.33;;;2.50;;
27303;SDS011;14791;52.392;13.092;2023-03-04T05:51:21;2.80;;;2.23;;
27303;SDS011;14791;52.392;13.092;2023-03-04T05:53:50;3.60;;;2.13;;
27303;SDS011;14791;52.392;13.092;2023-03-04T05:56:19;4.23;;;2.07;;
27303;SDS011;14791;52.392;13.092;2023-03-04T05:58:49;4.63;;;2.10;;
27303;SDS011;14791;52.392;13.092;2023-03-04T06:01:18;5.07;;;2.13;;
27303;SDS011;14791;52.392;13.092;2023-03-04T06:03:47;2.27;;;2.00;;
27303;SDS011;14791;52.392;13.092;2023-03-04T06:06:16;2.40;;;1.87;;
27303;SDS011;14791;52.392;13.092;2023-03-04T06:08:45;2.70;;;2.50;;
27303;SDS011;14791;52.392;13.092;2023-03-04T06:11:14;3.43;;;1.93;;
27303;SDS011;14791;52.392;13.092;2023-03-04T06:13:43;3.93;;;1.87;;
27303;SDS011;14791;52.392;13.092;2023-03-04T06:16:12;2.60;;;1.80;;
27303;SDS011;14791;52.392;13.092;2023-03-04T06:18:41;1.50;;;1.50;;
27303;SDS011;14791;52.392;13.092;2023-03-04T06:21:09;2.43;;;2.23;;
27303;SDS011;14791;52.392;13.092;2023-03-04T06:23:39;4.77;;;1.97;;
27303;SDS011;14791;52.392;13.092;2023-03-04T06:26:08;1.70;;;1.60;;
27303;SDS011;14791;52.392;13.092;2023-03-04T06:28:38;3.03;;;2.00;;
27303;SDS011;14791;52.392;13.092;2023-03-04T06:31:08;2.90;;;1.60;;
27303;SDS011;14791;52.392;13.092;2023-03-04T06:33:37;2.23;;;1.83;;
27303;SDS011;14791;52.392;13.092;2023-03-04T06:36:06;2.77;;;2.50;;
27303;SDS011;14791;52.392;13.092;2023-03-04T06:38:35;2.37;;;2.10;;
27303;SDS011;14791;52.392;13.092;2023-03-04T06:41:05;2.70;;;2.07;;
27303;SDS011;14791;52.392;13.092;2023-03-04T06:43:35;2.23;;;1.90;;
27303;SDS011;14791;52.392;13.092;2023-03-04T06:46:06;1.73;;;1.57;;
27303;SDS011;14791;52.392;13.092;2023-03-04T06:48:35;3.43;;;2.10;;
27303;SDS011;14791;52.392;13.092;2023-03-04T06:51:05;2.57;;;1.67;;
27303;SDS011;14791;52.392;13.092;2023-03-04T06:53:35;1.90;;;1.70;;
27303;SDS011;14791;52.392;13.092;2023-03-04T06:56:05;4.73;;;1.97;;
27303;SDS011;14791;52.392;13.092;2023-03-04T06:58:36;2.47;;;1.70;;
27303;SDS011;14791;52.392;13.092;2023-03-04T07:01:14;2.13;;;1.97;;
27303;SDS011;14791;52.392;13.092;2023-03-04T07:03:47;5.60;;;1.90;;
27303;SDS011;14791;52.392;13.092;2023-03-04T07:06:18;2.47;;;2.27;;
27303;SDS011;14791;52.392;13.092;2023-03-04T07:08:49;2.47;;;2.00;;
27303;SDS011;14791;52.392;13.092;2023-03-04T07:11:19;2.03;;;1.93;;
27303;SDS011;14791;52.392;13.092;2023-03-04T07:13:49;2.80;;;1.83;;
27303;SDS011;14791;52.392;13.092;2023-03-04T07:16:19;1.90;;;1.80;;
27303;SDS011;14791;52.392;13.092;2023-03-04T07:18:49;2.30;;;2.10;;
27303;SDS011;14791;52.392;13.092;2023-03-04T07:21:19;3.13;;;1.70;;
27303;SDS011;14791;52.392;13.092;2023-03-04T07:23:48;2.10;;;1.90;;
27303;SDS011;14791;52.392;13.092;2023-03-04T07:26:16;2.53;;;1.80;;
27303;SDS011;14791;52.392;13.092;2023-03-04T07:28:46;1.90;;;1.80;;
27303;SDS011;14791;52.392;13.092;2023-03-04T07:31:22;2.30;;;2.00;;
27303;SDS011;14791;52.392;13.092;2023-03-04T07:33:55;1.37;;;1.37;;
27303;SDS011;14791;52.392;13.092;2023-03-04T07:36:26;2.97;;;1.90;;
27303;SDS011;14791;52.392;13.092;2023-03-04T07:38:55;2.00;;;1.90;;
27303;SDS011;14791;52.392;13.092;2023-03-04T07:41:26;2.13;;;1.87;;
27303;SDS011;14791;52.392;13.092;2023-03-04T07:43:56;2.40;;;2.30;;
27303;SDS011;14791;52.392;13.092;2023-03-04T07:46:25;2.03;;;1.63;;
27303;SDS011;14791;52.392;13.092;2023-03-04T07:48:54;2.27;;;2.03;;
27303;SDS011;14791;52.392;13.092;2023-03-04T07:51:24;2.10;;;2.00;;
27303;SDS011;14791;52.392;13.092;2023-03-04T07:53:58;3.33;;;1.90;;
27303;SDS011;14791;52.392;13.092;2023-03-04T07:56:29;2.20;;;2.00;;
27303;SDS011;14791;52.392;13.092;2023-03-04T07:59:00;1.70;;;1.50;;
27303;SDS011;14791;52.392;13.092;2023-03-04T08:01:35;1.93;;;1.77;;
27303;SDS011;14791;52.392;13.092;2023-03-04T08:04:03;2.67;;;2.00;;
27303;SDS011;14791;52.392;13.092;2023-03-04T08:06:33;2.80;;;1.63;;
27303;SDS011;14791;52.392;13.092;2023-03-04T08:09:04;2.60;;;1.37;;
27303;SDS011;14791;52.392;13.092;2023-03-04T08:11:35;2.43;;;2.33;;
27303;SDS011;14791;52.392;13.092;2023-03-04T08:14:05;2.87;;;1.80;;
27303;SDS011;14791;52.392;13.092;2023-03-04T08:16:35;1.80;;;1.70;;
27303;SDS011;14791;52.392;13.092;2023-03-04T08:19:05;3.63;;;1.80;;
27303;SDS011;14791;52.392;13.092;2023-03-04T08:21:35;1.73;;;1.50;;
27303;SDS011;14791;52.392;13.092;2023-03-04T08:24:05;2.20;;;1.30;;
27303;SDS011;14791;52.392;13.092;2023-03-04T08:26:38;1.60;;;1.50;;
27303;SDS011;14791;52.392;13.092;2023-03-04T08:29:10;1.13;;;1.10;;
27303;SDS011;14791;52.392;13.092;2023-03-04T08:31:40;1.63;;;1.53;;
27303;SDS011;14791;52.392;13.092;2023-03-04T08:34:11;3.60;;;1.40;;
27303;SDS011;14791;52.392;13.092;2023-03-04T08:36:41;3.47;;;1.50;;
27303;SDS011;14791;52.392;13.092;2023-03-04T08:39:15;2.17;;;2.03;;
27303;SDS011;14791;52.392;13.092;2023-03-04T08:41:42;2.87;;;1.43;;
27303;SDS011;14791;52.392;13.092;2023-03-04T08:44:11;2.13;;;1.53;;
27303;SDS011;14791;52.392;13.092;2023-03-04T08:46:41;2.30;;;1.70;;
27303;SDS011;14791;52.392;13.092;2023-03-04T08:49:10;2.53;;;1.50;;
27303;SDS011;14791;52.392;13.092;2023-03-04T08:51:40;1.50;;;1.40;;
27303;SDS011;14791;52.392;13.092;2023-03-04T08:54:11;2.50;;;1.40;;
27303;SDS011;14791;52.392;13.092;2023-03-04T08:56:40;1.77;;;1.60;;
27303;SDS011;14791;52.392;13.092;2023-03-04T08:59:09;2.07;;;1.93;;
27303;SDS011;14791;52.392;13.092;2023-03-04T09:01:38;2.03;;;1.70;;
27303;SDS011;14791;52.392;13.092;2023-03-04T09:04:09;1.97;;;1.73;;
27303;SDS011;14791;52.392;13.092;2023-03-04T09:06:38;4.67;;;1.80;;
27303;SDS011;14791;52.392;13.092;2023-03-04T09:09:07;1.53;;;1.43;;
27303;SDS011;14791;52.392;13.092;2023-03-04T09:11:36;1.83;;;1.73;;
27303;SDS011;14791;52.392;13.092;2023-03-04T09:14:05;1.83;;;1.73;;
27303;SDS011;14791;52.392;13.092;2023-03-04T09:16:34;1.87;;;1.60;;
27303;SDS011;14791;52.392;13.092;2023-03-04T09:19:03;2.37;;;1.90;;
27303;SDS011;14791;52.392;13.092;2023-03-04T09:21:32;2.03;;;1.90;;
27303;SDS011;14791;52.392;13.092;2023-03-04T09:24:00;1.43;;;1.33;;
27303;SDS011;14791;52.392;13.092;2023-03-04T09:26:29;1.33;;;1.20;;
27303;SDS011;14791;52.392;13.092;2023-03-04T09:28:59;3.03;;;1.87;;
27303;SDS011;14791;52.392;13.092;2023-03-04T09:31:29;1.93;;;1.83;;
27303;SDS011;14791;52.392;13.092;2023-03-04T09:33:58;1.63;;;1.50;;
27303;SDS011;14791;52.392;13.092;2023-03-04T09:36:27;1.90;;;1.80;;
27303;SDS011;14791;52.392;13.092;2023-03-04T09:38:59;1.40;;;1.30;;
27303;SDS011;14791;52.392;13.092;2023-03-04T09:44:16;1.80;;;1.70;;
27303;SDS011;14791;52.392;13.092;2023-03-04T09:46:45;1.80;;;1.70;;
27303;SDS011;14791;52.392;13.092;2023-03-04T09:49:16;1.60;;;1.50;;
27303;SDS011;14791;52.392;13.092;2023-03-04T09:51:50;2.50;;;1.90;;
27303;SDS011;14791;52.392;13.092;2023-03-04T09:54:25;2.07;;;1.97;;
27303;SDS011;14791;52.392;13.092;2023-03-04T09:56:51;1.90;;;1.80;;
27303;SDS011;14791;52.392;13.092;2023-03-04T09:59:31;2.60;;;1.80;;
27303;SDS011;14791;52.392;13.092;2023-03-04T10:02:06;2.17;;;1.97;;
27303;SDS011;14791;52.392;13.092;2023-03-04T10:04:45;2.47;;;2.17;;
27303;SDS011;14791;52.392;13.092;2023-03-04T10:07:17;2.23;;;1.80;;
27303;SDS011;14791;52.392;13.092;2023-03-04T10:10:03;2.33;;;2.13;;
27303;SDS011;14791;52.392;13.092;2023-03-04T10:12:29;2.70;;;2.43;;
27303;SDS011;14791;52.392;13.092;2023-03-04T10:15:13;2.43;;;1.77;;
27303;SDS011;14791;52.392;13.092;2023-03-04T10:17:39;1.70;;;1.60;;
27303;SDS011;14791;52.392;13.092;2023-03-04T10:22:48;3.07;;;1.87;;
27303;SDS011;14791;52.392;13.092;2023-03-04T10:25:22;2.57;;;2.13;;
27303;SDS011;14791;52.392;13.092;2023-03-04T10:27:57;3.77;;;2.10;;
27303;SDS011;14791;52.392;13.092;2023-03-04T10:33:23;2.20;;;1.67;;
27303;SDS011;14791;52.392;13.092;2023-03-04T10:39:10;6.20;;;2.13;;
27303;SDS011;14791;52.392;13.092;2023-03-04T10:41:41;2.40;;;1.80;;
27303;SDS011;14791;52.392;13.092;2023-03-04T10:44:15;4.60;;;2.23;;
27303;SDS011;14791;52.392;13.092;2023-03-04T10:46:46;5.07;;;2.27;;
27303;SDS011;14791;52.392;13.092;2023-03-04T10:49:17;4.03;;;2.00;;
27303;SDS011;14791;52.392;13.092;2023-03-04T10:54:32;4.13;;;2.07;;
27303;SDS011;14791;52.392;13.092;2023-03-04T10:57:03;3.33;;;2.17;;
27303;SDS011;14791;52.392;13.092;2023-03-04T10:59:38;7.10;;;2.20;;
27303;SDS011;14791;52.392;13.092;2023-03-04T11:05:10;3.97;;;1.87;;
27303;SDS011;14791;52.392;13.092;2023-03-04T11:07:44;4.83;;;2.00;;
27303;SDS011;14791;52.392;13.092;2023-03-04T11:10:39;5.47;;;2.30;;
27303;SDS011;14791;52.392;13.092;2023-03-04T11:13:00;4.20;;;2.30;;
27303;SDS011;14791;52.392;13.092;2023-03-04T11:15:30;6.13;;;2.40;;
27303;SDS011;14791;52.392;13.092;2023-03-04T11:18:08;3.27;;;2.33;;
27303;SDS011;14791;52.392;13.092;2023-03-04T11:20:45;4.27;;;2.27;;
27303;SDS011;14791;52.392;13.092;2023-03-04T11:23:16;3.70;;;2.13;;
27303;SDS011;14791;52.392;13.092;2023-03-04T11:25:50;4.70;;;2.47;;
27303;SDS011;14791;52.392;13.092;2023-03-04T11:28:25;7.57;;;2.80;;
27303;SDS011;14791;52.392;13.092;2023-03-04T11:31:05;5.47;;;2.60;;
27303;SDS011;14791;52.392;13.092;2023-03-04T11:34:00;5.07;;;2.33;;
27303;SDS011;14791;52.392;13.092;2023-03-04T11:37:23;3.03;;;2.13;;
27303;SDS011;14791;52.392;13.092;2023-03-04T11:39:29;5.07;;;2.70;;
27303;SDS011;14791;52.392;13.092;2023-03-04T11:45:15;4.13;;;2.57;;
27303;SDS011;14791;52.392;13.092;2023-03-04T11:47:51;6.13;;;2.93;;
27303;SDS011;14791;52.392;13.092;2023-03-04T11:53:22;7.37;;;2.70;;
27303;SDS011;14791;52.392;13.092;2023-03-04T11:58:54;4.37;;;2.53;;
27303;SDS011;14791;52.392;13.092;2023-03-04T12:04:41;3.63;;;2.53;;
27303;SDS011;14791;52.392;13.092;2023-03-04T12:07:34;5.67;;;2.57;;
27303;SDS011;14791;52.392;13.092;2023-03-04T12:15:38;8.23;;;2.50;;
27303;SDS011;14791;52.392;13.092;2023-03-04T12:23:42;6.87;;;2.67;;
27303;SDS011;14791;52.392;13.092;2023-03-04T12:26:24;5.70;;;2.37;;
27303;SDS011;14791;52.392;13.092;2023-03-04T12:29:03;5.37;;;2.53;;
27303;SDS011;14791;52.392;13.092;2023-03-04T12:31:33;4.80;;;2.30;;
27303;SDS011;14791;52.392;13.092;2023-03-04T12:40:15;3.93;;;2.47;;
27303;SDS011;14791;52.392;13.092;2023-03-04T12:45:37;3.93;;;2.00;;
27303;SDS011;14791;52.392;13.092;2023-03-04T12:48:21;4.83;;;2.40;;
27303;SDS011;14791;52.392;13.092;2023-03-04T12:57:07;6.40;;;1.80;;
27303;SDS011;14791;52.392;13.092;2023-03-04T12:59:36;2.87;;;2.27;;
27303;SDS011;14791;52.392;13.092;2023-03-04T13:02:26;4.40;;;2.17;;
27303;SDS011;14791;52.392;13.092;2023-03-04T13:10:36;2.70;;;1.63;;
27303;SDS011;14791;52.392;13.092;2023-03-04T13:13:05;3.90;;;1.90;;
27303;SDS011;14791;52.392;13.092;2023-03-04T13:15:37;2.83;;;1.53;;
27303;SDS011;14791;52.392;13.092;2023-03-04T13:21:12;3.03;;;1.60;;
27303;SDS011;14791;52.392;13.092;2023-03-04T13:23:40;2.70;;;1.80;;
27303;SDS011;14791;52.392;13.092;2023-03-04T13:26:15;2.60;;;1.60;;
27303;SDS011;14791;52.392;13.092;2023-03-04T13:28:45;2.40;;;1.67;;
27303;SDS011;14791;52.392;13.092;2023-03-04T13:31:16;3.07;;;1.70;;
27303;SDS011;14791;52.392;13.092;2023-03-04T13:33:51;4.20;;;2.07;;
27303;SDS011;14791;52.392;13.092;2023-03-04T13:36:32;2.63;;;1.70;;
27303;SDS011;14791;52.392;13.092;2023-03-04T13:39:21;2.60;;;2.07;;
27303;SDS011;14791;52.392;13.092;2023-03-04T13:41:51;3.27;;;1.77;;
27303;SDS011;14791;52.392;13.092;2023-03-04T13:44:30;3.20;;;1.80;;
27303;SDS011;14791;52.392;13.092;2023-03-04T13:47:08;1.67;;;1.47;;
27303;SDS011;14791;52.392;13.092;2023-03-04T13:49:45;4.87;;;2.60;;
27303;SDS011;14791;52.392;13.092;2023-03-04T13:58:19;5.17;;;2.27;;
27303;SDS011;14791;52.392;13.092;2023-03-04T14:00:46;2.93;;;1.53;;
27303;SDS011;14791;52.392;13.092;2023-03-04T14:03:19;1.70;;;1.60;;
27303;SDS011;14791;52.392;13.092;2023-03-04T14:06:09;2.67;;;1.97;;
27303;SDS011;14791;52.392;13.092;2023-03-04T14:08:45;5.20;;;1.80;;
27303;SDS011;14791;52.392;13.092;2023-03-04T14:11:23;5.20;;;2.20;;
27303;SDS011;14791;52.392;13.092;2023-03-04T14:13:57;2.50;;;2.17;;
27303;SDS011;14791;52.392;13.092;2023-03-04T14:16:37;3.47;;;2.37;;
27303;SDS011;14791;52.392;13.092;2023-03-04T14:19:02;3.00;;;1.63;;
27303;SDS011;14791;52.392;13.092;2023-03-04T14:21:36;4.03;;;1.97;;
27303;SDS011;14791;52.392;13.092;2023-03-04T14:24:15;4.10;;;2.00;;
27303;SDS011;14791;52.392;13.092;2023-03-04T14:26:40;5.00;;;2.30;;
27303;SDS011;14791;52.392;13.092;2023-03-04T14:29:25;3.83;;;2.17;;
27303;SDS011;14791;52.392;13.092;2023-03-04T14:31:50;3.87;;;2.27;;
27303;SDS011;14791;52.392;13.092;2023-03-04T14:34:25;4.93;;;2.20;;
27303;SDS011;14791;52.392;13.092;2023-03-04T14:36:55;2.93;;;2.47;;
27303;SDS011;14791;52.392;13.092;2023-03-04T14:39:26;7.60;;;2.20;;
27303;SDS011;14791;52.392;13.092;2023-03-04T14:41:57;4.23;;;2.30;;
27303;SDS011;14791;52.392;13.092;2023-03-04T14:44:33;5.07;;;2.40;;
27303;SDS011;14791;52.392;13.092;2023-03-04T14:49:38;4.13;;;2.20;;
27303;SDS011;14791;52.392;13.092;2023-03-04T14:55:20;4.83;;;2.47;;
27303;SDS011;14791;52.392;13.092;2023-03-04T14:57:51;5.43;;;2.20;;
27303;SDS011;14791;52.392;13.092;2023-03-04T15:00:26;2.37;;;2.17;;
27303;SDS011;14791;52.392;13.092;2023-03-04T15:02:59;2.77;;;1.63;;
27303;SDS011;14791;52.392;13.092;2023-03-04T15:05:35;6.50;;;2.77;;
27303;SDS011;14791;52.392;13.092;2023-03-04T15:08:05;6.40;;;3.00;;
27303;SDS011;14791;52.392;13.092;2023-03-04T15:10:36;3.30;;;2.53;;
27303;SDS011;14791;52.392;13.092;2023-03-04T15:13:07;4.93;;;2.40;;
27303;SDS011;14791;52.392;13.092;2023-03-04T15:18:26;2.70;;;2.03;;
27303;SDS011;14791;52.392;13.092;2023-03-04T15:20:53;4.17;;;2.50;;
27303;SDS011;14791;52.392;13.092;2023-03-04T15:23:28;5.90;;;2.47;;
27303;SDS011;14791;52.392;13.092;2023-03-04T15:25:59;3.63;;;2.50;;
27303;SDS011;14791;52.392;13.092;2023-03-04T15:28:33;4.27;;;2.27;;
27303;SDS011;14791;52.392;13.092;2023-03-04T15:31:04;2.77;;;1.90;;
27303;SDS011;14791;52.392;13.092;2023-03-04T15:33:34;3.57;;;2.90;;
27303;SDS011;14791;52.392;13.092;2023-03-04T15:36:05;6.17;;;2.20;;
27303;SDS011;14791;52.392;13.092;2023-03-04T15:38:36;8.40;;;2.40;;
27303;SDS011;14791;52.392;13.092;2023-03-04T15:41:05;5.50;;;2.47;;
27303;SDS011;14791;52.392;13.092;2023-03-04T15:43:35;3.40;;;2.20;;
27303;SDS011;14791;52.392;13.092;2023-03-04T15:46:04;4.97;;;2.27;;
27303;SDS011;14791;52.392;13.092;2023-03-04T15:48:33;4.77;;;3.17;;
27303;SDS011;14791;52.392;13.092;2023-03-04T15:51:05;5.57;;;2.17;;
27303;SDS011;14791;52.392;13.092;2023-03-04T15:53:37;5.00;;;1.97;;
27303;SDS011;14791;52.392;13.092;2023-03-04T15:56:10;5.77;;;2.07;;
27303;SDS011;14791;52.392;13.092;2023-03-04T15:58:42;4.50;;;1.90;;
27303;SDS011;14791;52.392;13.092;2023-03-04T16:01:14;2.17;;;1.77;;
27303;SDS011;14791;52.392;13.092;2023-03-04T16:03:44;4.70;;;2.53;;
27303;SDS011;14791;52.392;13.092;2023-03-04T16:06:13;7.90;;;2.40;;
27303;SDS011;14791;52.392;13.092;2023-03-04T16:08:45;4.97;;;2.20;;
27303;SDS011;14791;52.392;13.092;2023-03-04T16:11:17;5.17;;;2.50;;
27303;SDS011;14791;52.392;13.092;2023-03-04T16:13:51;5.37;;;2.13;;
27303;SDS011;14791;52.392;13.092;2023-03-04T16:16:20;4.63;;;2.03;;
27303;SDS011;14791;52.392;13.092;2023-03-04T16:18:49;3.47;;;1.90;;